createdAt,value
2017-11-06T00:00:25.445Z,0
2017-11-06T00:01:46.945Z,0
2017-11-06T00:03:09.484Z,0
2017-11-06T00:04:30.988Z,0
2017-11-06T00:05:53.491Z,0
2017-11-06T00:07:15.998Z,0
2017-11-06T00:08:37.841Z,0
2017-11-06T00:09:59.717Z,0
2017-11-06T00:11:21.883Z,0
2017-11-06T00:12:44.077Z,0
2017-11-06T00:14:06.234Z,0
2017-11-06T00:15:27.484Z,0
2017-11-06T00:16:50.052Z,0
2017-11-06T00:18:11.675Z,0
2017-11-06T00:19:34.177Z,0
2017-11-06T00:20:56.014Z,0
2017-11-06T00:22:18.189Z,0
2017-11-06T00:23:39.693Z,0
2017-11-06T00:25:01.544Z,0
2017-11-06T00:26:23.832Z,0
2017-11-06T00:27:45.783Z,0
2017-11-06T00:29:07.632Z,0
2017-11-06T00:30:29.459Z,0
2017-11-06T00:31:51.642Z,0
2017-11-06T00:33:13.475Z,0
2017-11-06T00:34:35.340Z,0
2017-11-06T00:35:57.205Z,0
2017-11-06T00:37:19.668Z,0
2017-11-06T00:38:41.193Z,0
2017-11-06T00:40:03.135Z,0
2017-11-06T00:41:25.414Z,0
2017-11-06T00:42:46.909Z,0
2017-11-06T00:44:09.070Z,0
2017-11-06T00:45:30.922Z,0
2017-11-06T00:46:52.476Z,0
2017-11-06T00:48:14.674Z,0
2017-11-06T00:49:36.845Z,0
2017-11-06T00:50:58.703Z,0
2017-11-06T00:52:20.886Z,0
2017-11-06T00:53:42.720Z,0
2017-11-06T00:55:04.223Z,0
2017-11-06T00:56:26.392Z,0
2017-11-06T00:57:48.556Z,0
2017-11-06T00:59:10.087Z,0
2017-11-06T01:00:32.583Z,0
2017-11-06T01:01:55.081Z,0
2017-11-06T01:03:16.579Z,0
2017-11-06T01:04:38.932Z,0
2017-11-06T01:06:01.127Z,0
2017-11-06T01:07:23.340Z,0
2017-11-06T01:08:45.511Z,0
2017-11-06T01:10:07.028Z,0
2017-11-06T01:11:29.224Z,0
2017-11-06T01:12:51.087Z,0
2017-11-06T01:14:12.956Z,0
2017-11-06T01:15:35.174Z,0
2017-11-06T01:16:57.000Z,0
2017-11-06T01:18:19.573Z,0
2017-11-06T01:19:41.476Z,0
2017-11-06T01:21:04.126Z,0
2017-11-06T01:22:26.332Z,0
2017-11-06T01:23:48.178Z,0
2017-11-06T01:25:10.051Z,0
2017-11-06T01:26:32.221Z,0
2017-11-06T01:27:54.753Z,0
2017-11-06T01:29:16.986Z,0
2017-11-06T01:30:38.505Z,0
2017-11-06T01:32:00.035Z,0
2017-11-06T01:33:21.988Z,0
2017-11-06T01:34:43.825Z,0
2017-11-06T01:36:05.999Z,0
2017-11-06T01:37:42.403Z,0
2017-11-06T01:39:04.342Z,0
2017-11-06T01:40:25.912Z,0
2017-11-06T01:41:47.751Z,0
2017-11-06T01:43:09.514Z,0
2017-11-06T01:44:31.352Z,0
2017-11-06T01:45:52.864Z,0
2017-11-06T01:47:14.365Z,0
2017-11-06T01:48:35.870Z,0
2017-11-06T01:49:57.705Z,0
2017-11-06T01:51:19.248Z,0
2017-11-06T01:52:40.437Z,0
2017-11-06T01:54:02.617Z,0
2017-11-06T01:55:24.134Z,0
2017-11-06T01:56:46.356Z,0
2017-11-06T01:58:08.405Z,0
2017-11-06T01:59:30.605Z,0
2017-11-06T02:00:52.115Z,0
2017-11-06T02:02:13.712Z,0
2017-11-06T02:03:35.574Z,0
2017-11-06T02:04:57.696Z,0
2017-11-06T02:06:19.914Z,0
2017-11-06T02:07:41.078Z,0
2017-11-06T02:09:02.911Z,0
2017-11-06T02:10:24.115Z,0
2017-11-06T02:11:45.634Z,0
2017-11-06T02:13:07.816Z,0
2017-11-06T02:14:30.386Z,0
2017-11-06T02:15:52.137Z,0
2017-11-06T02:17:14.650Z,0
2017-11-06T02:18:36.798Z,0
2017-11-06T02:19:58.966Z,0
2017-11-06T02:21:21.530Z,0
2017-11-06T02:22:43.361Z,0
2017-11-06T02:24:05.252Z,0
2017-11-06T02:25:26.765Z,0
2017-11-06T02:26:49.016Z,0
2017-11-06T02:28:11.190Z,0
2017-11-06T02:29:32.789Z,0
2017-11-06T02:30:54.967Z,0
2017-11-06T02:32:16.813Z,0
2017-11-06T02:33:39.049Z,0
2017-11-06T02:35:00.937Z,0
2017-11-06T02:36:23.108Z,0
2017-11-06T02:37:45.548Z,0
2017-11-06T02:39:07.044Z,0
2017-11-06T02:40:28.895Z,0
2017-11-06T02:41:51.059Z,0
2017-11-06T02:43:12.616Z,0
2017-11-06T02:44:34.446Z,0
2017-11-06T02:45:56.996Z,0
2017-11-06T02:47:18.836Z,0
2017-11-06T02:48:40.346Z,0
2017-11-06T02:50:02.195Z,0
2017-11-06T02:51:24.469Z,0
2017-11-06T02:52:46.314Z,0
2017-11-06T02:54:08.480Z,0
2017-11-06T02:55:30.986Z,0
2017-11-06T02:56:53.579Z,0
2017-11-06T02:58:14.800Z,0
2017-11-06T02:59:36.655Z,0
2017-11-06T03:00:59.184Z,0
2017-11-06T03:02:21.055Z,0
2017-11-06T03:03:43.244Z,0
2017-11-06T03:05:05.057Z,0
2017-11-06T03:06:27.256Z,0
2017-11-06T03:07:49.793Z,0
2017-11-06T03:09:11.641Z,0
2017-11-06T03:10:33.290Z,0
2017-11-06T03:11:55.468Z,0
2017-11-06T03:13:17.296Z,0
2017-11-06T03:14:38.801Z,0
2017-11-06T03:16:00.968Z,0
2017-11-06T03:17:22.140Z,0
2017-11-06T03:18:44.366Z,0
2017-11-06T03:20:06.858Z,0
2017-11-06T03:21:29.052Z,0
2017-11-06T03:22:50.667Z,0
2017-11-06T03:24:12.957Z,0
2017-11-06T03:25:34.822Z,0
2017-11-06T03:26:56.658Z,0
2017-11-06T03:28:18.504Z,0
2017-11-06T03:29:40.433Z,0
2017-11-06T03:31:02.260Z,0
2017-11-06T03:32:24.686Z,0
2017-11-06T03:33:46.182Z,0
2017-11-06T03:35:07.352Z,0
2017-11-06T03:36:29.193Z,0
2017-11-06T03:37:52.114Z,0
2017-11-06T03:39:13.954Z,0
2017-11-06T03:40:35.783Z,0
2017-11-06T03:41:57.446Z,0
2017-11-06T03:43:19.637Z,0
2017-11-06T03:44:41.920Z,0
2017-11-06T03:46:04.186Z,0
2017-11-06T03:47:26.357Z,0
2017-11-06T03:48:48.439Z,0
2017-11-06T03:50:09.932Z,0
2017-11-06T03:51:31.446Z,0
2017-11-06T03:52:53.273Z,0
2017-11-06T03:54:14.826Z,0
2017-11-06T03:55:36.990Z,0
2017-11-06T03:56:58.507Z,0
2017-11-06T03:58:19.676Z,0
2017-11-06T03:59:41.750Z,0
2017-11-06T04:01:03.915Z,0
2017-11-06T04:02:25.742Z,0
2017-11-06T04:03:47.637Z,0
2017-11-06T04:05:09.798Z,0
2017-11-06T04:06:31.642Z,0
2017-11-06T04:07:53.491Z,0
2017-11-06T04:09:15.882Z,0
2017-11-06T04:10:37.709Z,0
2017-11-06T04:11:59.877Z,0
2017-11-06T04:13:22.090Z,0
2017-11-06T04:14:44.275Z,0
2017-11-06T04:16:06.121Z,0
2017-11-06T04:17:27.976Z,0
2017-11-06T04:18:50.161Z,0
2017-11-06T04:20:11.664Z,0
2017-11-06T04:21:33.208Z,0
2017-11-06T04:22:55.166Z,0
2017-11-06T04:24:17.416Z,0
2017-11-06T04:25:38.915Z,0
2017-11-06T04:27:00.475Z,0
2017-11-06T04:28:22.643Z,0
2017-11-06T04:29:45.228Z,0
2017-11-06T04:31:07.066Z,0
2017-11-06T04:32:29.252Z,0
2017-11-06T04:33:50.773Z,0
2017-11-06T04:35:12.938Z,0
2017-11-06T04:36:35.107Z,0
2017-11-06T04:37:57.255Z,0
2017-11-06T04:39:19.138Z,0
2017-11-06T04:40:41.325Z,0
2017-11-06T04:42:03.242Z,0
2017-11-06T04:43:25.766Z,0
2017-11-06T04:44:47.718Z,0
2017-11-06T04:46:09.215Z,0
2017-11-06T04:47:30.722Z,0
2017-11-06T04:48:53.213Z,0
2017-11-06T04:50:14.396Z,0
2017-11-06T04:51:36.576Z,0
2017-11-06T04:52:59.096Z,0
2017-11-06T04:54:21.505Z,0
2017-11-06T04:55:43.325Z,0
2017-11-06T04:57:05.165Z,0
2017-11-06T04:58:26.392Z,0
2017-11-06T04:59:47.887Z,0
2017-11-06T05:01:09.761Z,0
2017-11-06T05:02:32.323Z,0
2017-11-06T05:03:54.843Z,0
2017-11-06T05:05:16.696Z,0
2017-11-06T05:06:38.349Z,0
2017-11-06T05:08:00.853Z,0
2017-11-06T05:09:23.026Z,0
2017-11-06T05:10:44.561Z,0
2017-11-06T05:12:06.084Z,0
2017-11-06T05:13:28.045Z,0
2017-11-06T05:14:49.905Z,0
2017-11-06T05:16:12.235Z,0
2017-11-06T05:17:34.073Z,0
2017-11-06T05:18:55.910Z,0
2017-11-06T05:20:18.092Z,0
2017-11-06T05:21:39.602Z,0
2017-11-06T05:23:01.106Z,0
2017-11-06T05:24:22.936Z,0
2017-11-06T05:25:45.118Z,0
2017-11-06T05:27:06.946Z,0
2017-11-06T05:28:29.181Z,0
2017-11-06T05:29:51.363Z,0
2017-11-06T05:31:12.993Z,0
2017-11-06T05:32:35.250Z,0
2017-11-06T05:33:57.095Z,0
2017-11-06T05:35:19.282Z,0
2017-11-06T05:36:41.467Z,0
2017-11-06T05:38:03.308Z,0
2017-11-06T05:39:25.197Z,0
2017-11-06T05:40:46.705Z,0
2017-11-06T05:42:08.913Z,0
2017-11-06T05:43:31.394Z,0
2017-11-06T05:44:53.632Z,0
2017-11-06T05:46:15.826Z,0
2017-11-06T05:47:37.990Z,0
2017-11-06T05:49:00.165Z,0
2017-11-06T05:50:22.682Z,0
2017-11-06T05:51:45.248Z,0
2017-11-06T05:53:06.825Z,0
2017-11-06T05:54:28.679Z,0
2017-11-06T05:55:50.916Z,4
2017-11-06T05:57:13.426Z,4
2017-11-06T05:58:35.036Z,0
2017-11-06T05:59:57.266Z,4
2017-11-06T06:01:19.449Z,8
2017-11-06T06:02:41.329Z,8
2017-11-06T06:04:03.559Z,8
2017-11-06T06:05:26.080Z,8
2017-11-06T06:06:48.238Z,12
2017-11-06T06:08:10.086Z,16
2017-11-06T06:09:31.924Z,20
2017-11-06T06:10:54.135Z,24
2017-11-06T06:12:16.454Z,28
2017-11-06T06:13:38.620Z,36
2017-11-06T06:15:00.231Z,44
2017-11-06T06:16:21.721Z,52
2017-11-06T06:17:43.901Z,64
2017-11-06T06:19:06.084Z,80
2017-11-06T06:20:28.025Z,92
2017-11-06T06:21:50.235Z,108
2017-11-06T06:23:12.074Z,128
2017-11-06T06:24:34.310Z,144
2017-11-06T06:25:56.815Z,168
2017-11-06T06:27:19.035Z,192
2017-11-06T06:28:40.544Z,216
2017-11-06T06:30:02.375Z,248
2017-11-06T06:31:24.872Z,280
2017-11-06T06:32:47.296Z,316
2017-11-06T06:34:09.904Z,352
2017-11-06T06:35:32.229Z,396
2017-11-06T06:36:53.072Z,436
2017-11-06T06:38:14.244Z,484
2017-11-06T06:39:36.417Z,532
2017-11-06T06:40:58.303Z,588
2017-11-06T06:42:20.553Z,644
2017-11-06T06:43:42.416Z,700
2017-11-06T06:45:04.613Z,764
2017-11-06T06:46:26.123Z,824
2017-11-06T06:47:47.994Z,884
2017-11-06T06:49:10.165Z,944
2017-11-06T06:50:31.676Z,1004
2017-11-06T06:51:53.834Z,1056
2017-11-06T06:53:15.991Z,1124
2017-11-06T06:54:38.207Z,1192
2017-11-06T06:55:59.743Z,1252
2017-11-06T06:57:21.702Z,1304
2017-11-06T06:58:43.262Z,1364
2017-11-06T07:00:05.469Z,1420
2017-11-06T07:01:27.328Z,1476
2017-11-06T07:02:49.845Z,1536
2017-11-06T07:04:11.710Z,1600
2017-11-06T07:05:33.578Z,1644
2017-11-06T07:06:55.574Z,1696
2017-11-06T07:08:17.762Z,1756
2017-11-06T07:09:39.614Z,1812
2017-11-06T07:11:01.857Z,1864
2017-11-06T07:12:24.107Z,1916
2017-11-06T07:13:46.602Z,1968
2017-11-06T07:15:08.854Z,2012
2017-11-06T07:16:31.769Z,2060
2017-11-06T07:17:53.273Z,2120
2017-11-06T07:19:15.463Z,2172
2017-11-06T07:20:36.974Z,2216
2017-11-06T07:21:59.193Z,2244
2017-11-06T07:23:21.453Z,2284
2017-11-06T07:24:43.734Z,2332
2017-11-06T07:26:05.912Z,2360
2017-11-06T07:27:28.663Z,2396
2017-11-06T07:28:50.511Z,2428
2017-11-06T07:30:13.038Z,2456
2017-11-06T07:31:34.860Z,2492
2017-11-06T07:32:56.951Z,2536
2017-11-06T07:34:18.906Z,2564
2017-11-06T07:35:40.762Z,2592
2017-11-06T07:37:03.256Z,2692
2017-11-06T07:38:26.130Z,2752
2017-11-06T07:39:48.314Z,2824
2017-11-06T07:41:10.503Z,2956
2017-11-06T07:42:32.406Z,2992
2017-11-06T07:43:53.974Z,2980
2017-11-06T07:45:15.495Z,2988
2017-11-06T07:46:37.726Z,3016
2017-11-06T07:47:59.932Z,3028
2017-11-06T07:49:21.694Z,3016
2017-11-06T07:50:43.973Z,3036
2017-11-06T07:52:06.477Z,3068
2017-11-06T07:53:28.311Z,3084
2017-11-06T07:54:50.172Z,3112
2017-11-06T07:56:11.745Z,3140
2017-11-06T07:57:34.262Z,3140
2017-11-06T07:58:55.784Z,3012
2017-11-06T08:00:18.415Z,2936
2017-11-06T08:01:40.259Z,2932
2017-11-06T08:03:02.557Z,2932
2017-11-06T08:04:24.742Z,2968
2017-11-06T08:05:46.650Z,3044
2017-11-06T08:07:08.823Z,3132
2017-11-06T08:08:31.023Z,3276
2017-11-06T08:09:52.251Z,3284
2017-11-06T08:11:14.372Z,3292
2017-11-06T08:12:35.601Z,3300
2017-11-06T08:13:57.805Z,3316
2017-11-06T08:15:19.983Z,3340
2017-11-06T08:16:41.544Z,3352
2017-11-06T08:18:03.372Z,3368
2017-11-06T08:19:25.910Z,3376
2017-11-06T08:20:48.427Z,3388
2017-11-06T08:22:10.391Z,3404
2017-11-06T08:23:32.300Z,3428
2017-11-06T08:24:54.544Z,3440
2017-11-06T08:26:16.763Z,3444
2017-11-06T08:27:38.634Z,3456
2017-11-06T08:29:00.836Z,3452
2017-11-06T08:30:23.035Z,3464
2017-11-06T08:31:45.562Z,3480
2017-11-06T08:33:07.724Z,3488
2017-11-06T08:34:30.235Z,3492
2017-11-06T08:35:51.768Z,3496
2017-11-06T08:37:13.642Z,3500
2017-11-06T08:38:36.170Z,3512
2017-11-06T08:39:58.731Z,3512
2017-11-06T08:41:20.943Z,3524
2017-11-06T08:42:42.787Z,3544
2017-11-06T08:44:04.963Z,3536
2017-11-06T08:45:27.162Z,3548
2017-11-06T08:46:49.703Z,3572
2017-11-06T08:48:11.880Z,3568
2017-11-06T08:49:33.714Z,3564
2017-11-06T08:50:56.231Z,3580
2017-11-06T08:52:18.204Z,3580
2017-11-06T08:53:40.411Z,3596
2017-11-06T08:55:02.586Z,3596
2017-11-06T08:56:24.874Z,3604
2017-11-06T08:57:47.042Z,3604
2017-11-06T08:59:08.545Z,3604
2017-11-06T09:00:31.057Z,3612
2017-11-06T09:01:52.903Z,3628
2017-11-06T09:03:15.439Z,3636
2017-11-06T09:04:37.622Z,3636
2017-11-06T09:05:59.704Z,3648
2017-11-06T09:07:21.878Z,3648
2017-11-06T09:08:44.074Z,3664
2017-11-06T09:10:05.598Z,3672
2017-11-06T09:11:27.516Z,3680
2017-11-06T09:12:49.361Z,3692
2017-11-06T09:14:11.882Z,3704
2017-11-06T09:15:33.724Z,3708
2017-11-06T09:16:55.913Z,3716
2017-11-06T09:18:18.074Z,3728
2017-11-06T09:19:40.257Z,3744
2017-11-06T09:21:02.122Z,3760
2017-11-06T09:22:23.627Z,3792
2017-11-06T09:23:45.821Z,3848
2017-11-06T09:25:07.684Z,3928
2017-11-06T09:26:29.965Z,3984
2017-11-06T09:27:52.394Z,3992
2017-11-06T09:29:14.678Z,3936
2017-11-06T09:30:37.189Z,3968
2017-11-06T09:31:59.099Z,3888
2017-11-06T09:33:21.536Z,3916
2017-11-06T09:34:44.186Z,4196
2017-11-06T09:36:06.688Z,4388
2017-11-06T09:37:28.546Z,4272
2017-11-06T09:38:50.653Z,4068
2017-11-06T09:40:12.490Z,4036
2017-11-06T09:41:33.754Z,4172
2017-11-06T09:42:55.976Z,4200
2017-11-06T09:44:18.066Z,4180
2017-11-06T09:45:40.254Z,3972
2017-11-06T09:47:02.426Z,3900
2017-11-06T09:48:23.932Z,3944
2017-11-06T09:49:46.102Z,4024
2017-11-06T09:51:07.276Z,4004
2017-11-06T09:52:28.784Z,3992
2017-11-06T09:53:50.018Z,3984
2017-11-06T09:55:12.101Z,3884
2017-11-06T09:56:33.947Z,3980
2017-11-06T09:57:56.454Z,3952
2017-11-06T09:59:18.740Z,3960
2017-11-06T10:00:40.602Z,3948
2017-11-06T10:02:02.778Z,3944
2017-11-06T10:03:24.644Z,3932
2017-11-06T10:04:46.939Z,3968
2017-11-06T10:06:09.384Z,3980
2017-11-06T10:07:31.561Z,3972
2017-11-06T10:08:53.738Z,3964
2017-11-06T10:10:15.393Z,3888
2017-11-06T10:11:37.572Z,3876
2017-11-06T10:12:59.433Z,3868
2017-11-06T10:14:21.355Z,3872
2017-11-06T10:15:43.537Z,3892
2017-11-06T10:17:05.793Z,3888
2017-11-06T10:18:27.295Z,3884
2017-11-06T10:19:49.149Z,3880
2017-11-06T10:21:11.449Z,3884
2017-11-06T10:22:33.968Z,3896
2017-11-06T10:23:55.834Z,3908
2017-11-06T10:25:17.344Z,3912
2017-11-06T10:26:39.930Z,3928
2017-11-06T10:28:02.351Z,3928
2017-11-06T10:29:24.183Z,3928
2017-11-06T10:30:46.013Z,3932
2017-11-06T10:32:08.274Z,3936
2017-11-06T10:33:30.722Z,3948
2017-11-06T10:34:53.304Z,3964
2017-11-06T10:36:15.467Z,3976
2017-11-06T10:37:37.315Z,3996
2017-11-06T10:38:59.153Z,3992
2017-11-06T10:40:21.360Z,3992
2017-11-06T10:41:42.964Z,4008
2017-11-06T10:43:05.142Z,4028
2017-11-06T10:44:26.772Z,4012
2017-11-06T10:45:48.334Z,3980
2017-11-06T10:47:10.674Z,4032
2017-11-06T10:48:32.515Z,4116
2017-11-06T10:49:54.016Z,4228
2017-11-06T10:51:16.254Z,4296
2017-11-06T10:52:38.761Z,4244
2017-11-06T10:54:00.942Z,4076
2017-11-06T10:55:22.791Z,4032
2017-11-06T10:56:44.981Z,4216
2017-11-06T10:58:07.578Z,4428
2017-11-06T10:59:29.560Z,4604
2017-11-06T11:00:51.734Z,4680
2017-11-06T11:02:13.910Z,4784
2017-11-06T11:03:36.174Z,4780
2017-11-06T11:04:58.429Z,4748
2017-11-06T11:06:21.247Z,4540
2017-11-06T11:07:43.152Z,4296
2017-11-06T11:09:05.006Z,4104
2017-11-06T11:10:27.171Z,4000
2017-11-06T11:11:49.424Z,3980
2017-11-06T11:13:11.935Z,3980
2017-11-06T11:14:34.228Z,3988
2017-11-06T11:15:56.378Z,3968
2017-11-06T11:17:18.643Z,3824
2017-11-06T11:18:40.817Z,3904
2017-11-06T11:20:01.986Z,3880
2017-11-06T11:21:23.815Z,3884
2017-11-06T11:22:46.656Z,3884
2017-11-06T11:24:08.835Z,3880
2017-11-06T11:25:31.474Z,3868
2017-11-06T11:26:53.372Z,3868
2017-11-06T11:28:15.543Z,3876
2017-11-06T11:29:37.704Z,3888
2017-11-06T11:30:59.230Z,3896
2017-11-06T11:32:21.741Z,3892
2017-11-06T11:33:43.949Z,3892
2017-11-06T11:35:06.138Z,3880
2017-11-06T11:36:28.729Z,3872
2017-11-06T11:37:51.216Z,3872
2017-11-06T11:39:13.396Z,3864
2017-11-06T11:40:35.588Z,3856
2017-11-06T11:41:57.811Z,3856
2017-11-06T11:43:19.699Z,3852
2017-11-06T11:44:41.870Z,3848
2017-11-06T11:46:04.413Z,3848
2017-11-06T11:47:26.936Z,3848
2017-11-06T11:48:49.049Z,3848
2017-11-06T11:50:10.616Z,3848
2017-11-06T11:51:32.799Z,3848
2017-11-06T11:52:54.706Z,3852
2017-11-06T11:54:17.226Z,3856
2017-11-06T11:55:39.095Z,3856
2017-11-06T11:57:00.956Z,3868
2017-11-06T11:58:22.804Z,3960
2017-11-06T11:59:45.319Z,3884
2017-11-06T12:01:07.477Z,3888
2017-11-06T12:02:29.359Z,3864
2017-11-06T12:03:51.936Z,3860
2017-11-06T12:05:14.181Z,3868
2017-11-06T12:06:36.086Z,3860
2017-11-06T12:07:58.347Z,3852
2017-11-06T12:09:20.855Z,3852
2017-11-06T12:10:43.033Z,3516
2017-11-06T12:12:05.216Z,3432
2017-11-06T12:13:27.393Z,3508
2017-11-06T12:14:49.905Z,3976
2017-11-06T12:16:12.438Z,3984
2017-11-06T12:17:34.645Z,3904
2017-11-06T12:18:56.171Z,3884
2017-11-06T12:20:17.693Z,3860
2017-11-06T12:21:39.286Z,3832
2017-11-06T12:23:01.627Z,3832
2017-11-06T12:24:23.155Z,3844
2017-11-06T12:25:44.674Z,3864
2017-11-06T12:27:06.567Z,3896
2017-11-06T12:28:28.741Z,3912
2017-11-06T12:29:50.910Z,3896
2017-11-06T12:31:12.093Z,3880
2017-11-06T12:32:33.932Z,3532
2017-11-06T12:33:56.816Z,3508
2017-11-06T12:35:17.998Z,3808
2017-11-06T12:36:40.533Z,3832
2017-11-06T12:38:02.703Z,3568
2017-11-06T12:39:24.556Z,3816
2017-11-06T12:40:47.076Z,3800
2017-11-06T12:42:09.256Z,3580
2017-11-06T12:43:31.451Z,3476
2017-11-06T12:44:54.061Z,3588
2017-11-06T12:46:16.244Z,3836
2017-11-06T12:47:38.844Z,3552
2017-11-06T12:49:00.703Z,3752
2017-11-06T12:50:23.297Z,3436
2017-11-06T12:51:45.815Z,3436
2017-11-06T12:53:07.995Z,3412
2017-11-06T12:54:30.168Z,3628
2017-11-06T12:55:52.716Z,3416
2017-11-06T12:57:14.914Z,3376
2017-11-06T12:58:37.471Z,3348
2017-11-06T13:00:00.000Z,3352
2017-11-06T13:01:21.757Z,3384
2017-11-06T13:02:43.925Z,3432
2017-11-06T13:04:05.795Z,3416
2017-11-06T13:05:28.425Z,3352
2017-11-06T13:06:50.275Z,3304
2017-11-06T13:08:12.455Z,3348
2017-11-06T13:09:34.725Z,3460
2017-11-06T13:10:57.252Z,3552
2017-11-06T13:12:19.907Z,3476
2017-11-06T13:13:42.412Z,3396
2017-11-06T13:15:04.707Z,3328
2017-11-06T13:16:26.645Z,3244
2017-11-06T13:17:48.566Z,3164
2017-11-06T13:19:10.753Z,3096
2017-11-06T13:20:32.955Z,3064
2017-11-06T13:21:55.213Z,3068
2017-11-06T13:23:17.407Z,3076
2017-11-06T13:24:39.000Z,3084
2017-11-06T13:26:01.546Z,3088
2017-11-06T13:27:23.734Z,3088
2017-11-06T13:28:45.943Z,3104
2017-11-06T13:30:07.535Z,3124
2017-11-06T13:31:29.393Z,3144
2017-11-06T13:32:51.315Z,3172
2017-11-06T13:34:13.492Z,3184
2017-11-06T13:35:35.761Z,3208
2017-11-06T13:36:58.231Z,3244
2017-11-06T13:38:20.195Z,3268
2017-11-06T13:39:41.709Z,3264
2017-11-06T13:41:03.223Z,3248
2017-11-06T13:42:25.424Z,3236
2017-11-06T13:43:47.284Z,3252
2017-11-06T13:45:09.470Z,3288
2017-11-06T13:46:31.773Z,3308
2017-11-06T13:47:54.274Z,3316
2017-11-06T13:49:16.545Z,3304
2017-11-06T13:50:38.452Z,3288
2017-11-06T13:52:00.765Z,3296
2017-11-06T13:53:23.285Z,3304
2017-11-06T13:54:45.483Z,3316
2017-11-06T13:56:07.851Z,3340
2017-11-06T13:57:30.066Z,3364
2017-11-06T13:58:52.575Z,3328
2017-11-06T14:00:15.106Z,3180
2017-11-06T14:01:37.099Z,3068
2017-11-06T14:02:58.975Z,3012
2017-11-06T14:04:21.546Z,2976
2017-11-06T14:05:42.400Z,2972
2017-11-06T14:07:03.927Z,3088
2017-11-06T14:08:26.124Z,3144
2017-11-06T14:09:48.314Z,3120
2017-11-06T14:11:10.504Z,3112
2017-11-06T14:12:32.668Z,3100
2017-11-06T14:13:55.216Z,3088
2017-11-06T14:15:17.745Z,3068
2017-11-06T14:16:39.638Z,3060
2017-11-06T14:18:01.816Z,3060
2017-11-06T14:19:23.675Z,3064
2017-11-06T14:20:45.546Z,3044
2017-11-06T14:22:07.745Z,3064
2017-11-06T14:23:29.994Z,3108
2017-11-06T14:24:52.194Z,3184
2017-11-06T14:26:14.044Z,3244
2017-11-06T14:27:35.914Z,3280
2017-11-06T14:28:58.082Z,3236
2017-11-06T14:30:20.604Z,3156
2017-11-06T14:31:42.467Z,3128
2017-11-06T14:33:05.000Z,3160
2017-11-06T14:34:27.189Z,3180
2017-11-06T14:35:48.700Z,3176
2017-11-06T14:37:10.554Z,3336
2017-11-06T14:38:32.489Z,3588
2017-11-06T14:39:55.195Z,3788
2017-11-06T14:41:17.046Z,3960
2017-11-06T14:42:38.561Z,3992
2017-11-06T14:44:00.415Z,3924
2017-11-06T14:45:22.921Z,3920
2017-11-06T14:46:44.773Z,3752
2017-11-06T14:48:06.650Z,3552
2017-11-06T14:49:28.934Z,3316
2017-11-06T14:50:51.210Z,3132
2017-11-06T14:52:13.643Z,2908
2017-11-06T14:53:35.515Z,2688
2017-11-06T14:54:57.375Z,2496
2017-11-06T14:56:19.894Z,2280
2017-11-06T14:57:42.119Z,2100
2017-11-06T14:59:04.653Z,1972
2017-11-06T15:00:26.941Z,1876
2017-11-06T15:01:48.899Z,1796
2017-11-06T15:03:11.095Z,1732
2017-11-06T15:04:32.939Z,1668
2017-11-06T15:05:55.514Z,1600
2017-11-06T15:07:17.724Z,1540
2017-11-06T15:08:40.310Z,1484
2017-11-06T15:10:02.656Z,1432
2017-11-06T15:11:24.848Z,1376
2017-11-06T15:12:47.069Z,1320
2017-11-06T15:14:09.391Z,1264
2017-11-06T15:15:31.594Z,1212
2017-11-06T15:16:53.464Z,1148
2017-11-06T15:18:15.934Z,1092
2017-11-06T15:19:37.885Z,1032
2017-11-06T15:21:00.075Z,980
2017-11-06T15:22:22.290Z,932
2017-11-06T15:23:44.934Z,880
2017-11-06T15:25:07.117Z,832
2017-11-06T15:26:28.972Z,784
2017-11-06T15:27:51.178Z,740
2017-11-06T15:29:13.376Z,696
2017-11-06T15:30:35.897Z,648
2017-11-06T15:31:57.767Z,604
2017-11-06T15:33:20.016Z,560
2017-11-06T15:34:42.906Z,520
2017-11-06T15:36:05.139Z,476
2017-11-06T15:37:27.033Z,436
2017-11-06T15:38:49.614Z,396
2017-11-06T15:40:11.931Z,360
2017-11-06T15:41:34.455Z,324
2017-11-06T15:42:56.343Z,288
2017-11-06T15:44:18.533Z,260
2017-11-06T15:45:40.735Z,224
2017-11-06T15:47:03.290Z,200
2017-11-06T15:48:25.168Z,172
2017-11-06T15:49:47.417Z,148
2017-11-06T15:51:09.974Z,128
2017-11-06T15:52:32.156Z,108
2017-11-06T15:53:54.683Z,92
2017-11-06T15:55:16.886Z,76
2017-11-06T15:56:39.383Z,64
2017-11-06T15:58:01.907Z,52
2017-11-06T15:59:23.751Z,40
2017-11-06T16:00:45.927Z,96
2017-11-06T16:02:08.798Z,28
2017-11-06T16:03:30.989Z,84
2017-11-06T16:04:52.524Z,20
2017-11-06T16:06:14.474Z,16
2017-11-06T16:07:37.052Z,12
2017-11-06T16:08:59.245Z,8
2017-11-06T16:10:21.102Z,8
2017-11-06T16:11:43.655Z,4
2017-11-06T16:13:06.168Z,4
2017-11-06T16:14:28.688Z,4
2017-11-06T16:15:51.196Z,4
2017-11-06T16:17:13.428Z,0
2017-11-06T16:18:35.615Z,4
2017-11-06T16:19:57.487Z,0
2017-11-06T16:21:20.042Z,0
2017-11-06T16:22:41.361Z,0
2017-11-06T16:24:04.194Z,0
2017-11-06T16:25:26.154Z,0
2017-11-06T16:26:48.669Z,0
2017-11-06T16:28:10.896Z,0
2017-11-06T16:29:32.418Z,0
2017-11-06T16:30:54.895Z,0
2017-11-06T16:32:17.111Z,0
2017-11-06T16:33:39.315Z,0
2017-11-06T16:35:01.865Z,0
2017-11-06T16:36:24.408Z,0
2017-11-06T16:37:46.304Z,0
2017-11-06T16:39:08.174Z,0
2017-11-06T16:40:30.356Z,0
2017-11-06T16:41:52.564Z,0
2017-11-06T16:43:14.087Z,0
2017-11-06T16:44:36.639Z,0
2017-11-06T16:45:58.586Z,0
2017-11-06T16:47:20.798Z,0
2017-11-06T16:48:42.992Z,0
2017-11-06T16:50:05.205Z,0
2017-11-06T16:51:27.465Z,0
2017-11-06T16:52:50.035Z,0
2017-11-06T16:54:11.897Z,0
2017-11-06T16:55:33.824Z,0
2017-11-06T16:56:56.359Z,0
2017-11-06T16:58:18.676Z,0
2017-11-06T16:59:40.865Z,0
2017-11-06T17:01:03.066Z,0
2017-11-06T17:02:25.887Z,0
2017-11-06T17:03:48.086Z,0
2017-11-06T17:05:10.284Z,0
2017-11-06T17:06:32.530Z,0
2017-11-06T17:07:55.106Z,0
2017-11-06T17:09:17.022Z,0
2017-11-06T17:10:39.287Z,0
2017-11-06T17:12:01.832Z,0
2017-11-06T17:13:24.478Z,0
2017-11-06T17:14:46.734Z,0
2017-11-06T17:16:08.597Z,0
2017-11-06T17:17:31.141Z,0
2017-11-06T17:18:53.495Z,0
2017-11-06T17:20:16.126Z,0
2017-11-06T17:21:38.388Z,0
2017-11-06T17:23:00.903Z,0
2017-11-06T17:24:23.322Z,0
2017-11-06T17:25:45.859Z,0
2017-11-06T17:27:08.065Z,0
2017-11-06T17:28:29.956Z,0
2017-11-06T17:29:51.829Z,0
2017-11-06T17:31:13.793Z,0
2017-11-06T17:32:35.984Z,0
2017-11-06T17:33:57.835Z,0
2017-11-06T17:35:20.380Z,0
2017-11-06T17:36:42.235Z,0
2017-11-06T17:38:04.415Z,0
2017-11-06T17:39:26.353Z,0
2017-11-06T17:40:48.593Z,0
2017-11-06T17:42:10.853Z,0
2017-11-06T17:43:33.045Z,0
2017-11-06T17:44:55.689Z,0
2017-11-06T17:46:17.912Z,0
2017-11-06T17:47:39.468Z,0
2017-11-06T17:49:02.063Z,0
2017-11-06T17:50:24.637Z,0
2017-11-06T17:51:46.825Z,0
2017-11-06T17:53:08.764Z,0
2017-11-06T17:54:30.965Z,0
2017-11-06T17:55:53.244Z,0
2017-11-06T17:57:15.115Z,0
2017-11-06T17:58:37.717Z,0
2017-11-06T17:59:59.895Z,0
2017-11-06T18:01:22.164Z,0
2017-11-06T18:02:44.393Z,0
2017-11-06T18:04:07.041Z,0
2017-11-06T18:05:29.255Z,0
2017-11-06T18:06:51.457Z,0
2017-11-06T18:08:13.430Z,0
2017-11-06T18:09:35.816Z,0
2017-11-06T18:10:58.428Z,0
2017-11-06T18:12:20.627Z,0
2017-11-06T18:13:43.330Z,0
2017-11-06T18:15:05.888Z,0
2017-11-06T18:16:28.454Z,0
2017-11-06T18:17:50.773Z,0
2017-11-06T18:19:13.294Z,0
2017-11-06T18:20:35.515Z,0
2017-11-06T18:21:58.125Z,0
2017-11-06T18:23:20.425Z,0
2017-11-06T18:24:43.271Z,0
2017-11-06T18:26:06.054Z,0
2017-11-06T18:27:28.375Z,0
2017-11-06T18:28:50.567Z,0
2017-11-06T18:30:12.750Z,0
2017-11-06T18:31:34.623Z,0
2017-11-06T18:32:56.833Z,0
2017-11-06T18:34:19.063Z,0
2017-11-06T18:35:41.329Z,0
2017-11-06T18:37:03.865Z,0
2017-11-06T18:38:26.402Z,0
2017-11-06T18:39:48.920Z,0
2017-11-06T18:41:10.815Z,0
2017-11-06T18:42:33.000Z,0
2017-11-06T18:43:55.565Z,0
2017-11-06T18:45:17.419Z,0
2017-11-06T18:46:39.913Z,0
2017-11-06T18:48:02.488Z,0
2017-11-06T18:49:25.026Z,0
2017-11-06T18:50:47.575Z,0
2017-11-06T18:52:24.047Z,0
2017-11-06T18:53:46.618Z,0
2017-11-06T18:55:09.185Z,0
2017-11-06T18:56:31.384Z,0
2017-11-06T18:57:53.310Z,0
2017-11-06T18:59:15.852Z,0
2017-11-06T19:00:38.165Z,0
2017-11-06T19:02:00.607Z,0
2017-11-06T19:03:23.132Z,0
2017-11-06T19:04:45.412Z,0
2017-11-06T19:06:07.275Z,0
2017-11-06T19:07:29.867Z,0
2017-11-06T19:08:52.083Z,0
2017-11-06T19:10:14.306Z,0
2017-11-06T19:11:36.596Z,0